Time;durP1;ratioP1;P1;durP2;ratioP2;P2;SDS_P1;SDS_P2;PMS_P1;PMS_P2;Temp;Humidity;BMP_temperature;BMP_pressure;BME280_temperature;BME280_humidity;BME280_pressure;Samples;Min_cycle;Max_cycle;Signal;HPM_P1;HPM_P2
2023/05/24 00:00:21;;;;;;;9.30;5.73;;;;;;;18.21;91.15;99962.63;1426933;90;21533;-86
2023/05/24 00:02:48;;;;;;;7.07;5.77;;;;;;;18.21;90.74;99959.95;1446605;90;21326;-88
2023/05/24 00:05:15;;;;;;;10.60;5.07;;;;;;;18.19;91.21;99959.36;1435926;90;21341;-87
2023/05/24 00:07:41;;;;;;;9.60;5.60;;;;;;;18.18;91.47;99962.56;1422233;90;21363;-85
2023/05/24 00:10:10;;;;;;;6.57;5.50;;;;;;;18.17;91.68;99962.75;1435498;90;21445;-88
2023/05/24 00:12:36;;;;;;;6.33;5.50;;;;;;;18.17;91.85;99962.75;1445326;90;21363;-88
2023/05/24 00:15:03;;;;;;;7.20;5.23;;;;;;;18.19;91.71;99959.36;1435403;90;21466;-87
2023/05/24 00:17:29;;;;;;;10.53;5.60;;;;;;;18.21;91.52;99958.62;1427344;90;22831;-84
2023/05/24 00:19:55;;;;;;;7.23;5.63;;;;;;;18.20;91.52;99958.32;1442673;90;21326;-84
2023/05/24 00:22:21;;;;;;;7.50;5.13;;;;;;;18.19;91.75;99956.69;1443925;90;21414;-84
2023/05/24 00:24:48;;;;;;;9.20;5.23;;;;;;;18.17;91.52;99957.41;1437681;90;21437;-82
2023/05/24 00:27:14;;;;;;;6.53;4.47;;;;;;;18.15;91.46;99953.58;1436512;90;21371;-83
2023/05/24 00:29:41;;;;;;;6.50;4.93;;;;;;;18.14;91.85;99948.45;1440222;90;21569;-87
2023/05/24 00:32:07;;;;;;;6.50;4.77;;;;;;;18.11;92.01;99952.88;1437987;90;22345;-86
2023/05/24 00:34:33;;;;;;;10.17;5.80;;;;;;;18.06;92.59;99948.14;1437638;90;21406;-87
2023/05/24 00:36:59;;;;;;;6.30;5.70;;;;;;;18.02;92.01;99957.63;1441905;90;21349;-86
2023/05/24 00:39:26;;;;;;;7.97;5.70;;;;;;;17.99;92.00;99965.56;1432469;90;22390;-84
2023/05/24 00:41:52;;;;;;;8.23;5.97;;;;;;;17.97;92.22;99958.24;1442252;90;21393;-86
2023/05/24 00:44:19;;;;;;;6.80;5.73;;;;;;;17.96;92.41;99964.63;1443022;90;21437;-85
2023/05/24 00:46:45;;;;;;;10.67;5.53;;;;;;;17.93;92.98;99973.09;1442244;90;21326;-83
2023/05/24 00:49:11;;;;;;;10.23;5.13;;;;;;;17.93;93.15;99974.42;1436728;90;22412;-84
2023/05/24 00:51:38;;;;;;;9.90;6.17;;;;;;;17.92;93.03;99976.77;1437372;90;21543;-85
2023/05/24 00:54:05;;;;;;;7.83;5.53;;;;;;;17.92;93.49;99978.11;1439432;90;21467;-86
2023/05/24 00:56:31;;;;;;;11.50;5.60;;;;;;;17.93;93.31;99981.12;1441370;90;21400;-84
2023/05/24 00:58:58;;;;;;;7.50;5.83;;;;;;;17.91;93.28;99984.50;1436772;90;22847;-82
2023/05/24 01:01:24;;;;;;;11.00;7.47;;;;;;;17.90;93.77;99988.74;1436524;90;21540;-85
2023/05/24 01:03:52;;;;;;;11.50;5.87;;;;;;;17.85;93.18;99986.67;1439399;90;21444;-86
2023/05/24 01:06:19;;;;;;;11.23;5.53;;;;;;;17.80;93.39;99989.95;1436891;90;21481;-86
2023/05/24 01:09:20;;;;;;;7.57;5.40;;;;;;;17.79;93.45;99987.50;1438647;90;21881;-82
2023/05/24 01:12:11;;;;;;;8.37;5.40;;;;;;;17.77;93.94;99994.87;1441332;90;21465;-85
2023/05/24 01:14:45;;;;;;;8.78;5.45;;;;;;;17.77;93.83;100005.57;1439961;90;21651;-83
2023/05/24 01:17:20;;;;;;;8.23;4.93;;;;;;;17.76;93.65;100005.27;1439370;90;21496;-85
2023/05/24 01:20:05;;;;;;;12.57;5.63;;;;;;;17.76;93.77;100006.61;1424332;90;21415;-85
2023/05/24 01:22:56;;;;;;;9.10;6.37;;;;;;;17.76;93.77;100013.30;1437448;90;21407;-86
2023/05/24 01:25:54;;;;;;;8.13;6.77;;;;;;;17.74;93.34;100010.00;1435077;90;22435;-87
2023/05/24 01:28:21;;;;;;;8.70;6.63;;;;;;;17.72;93.16;100008.03;1444261;90;22265;-88
2023/05/24 01:30:47;;;;;;;7.80;5.97;;;;;;;17.71;93.31;100009.07;1428085;90;21289;-86
2023/05/24 01:33:14;;;;;;;8.67;5.97;;;;;;;17.68;93.34;100009.48;1443080;90;21372;-88
2023/05/24 01:35:41;;;;;;;9.77;5.87;;;;;;;17.66;93.47;100014.20;1430332;90;22235;-86
2023/05/24 01:38:11;;;;;;;11.63;5.77;;;;;;;17.62;93.59;100008.44;1438594;90;21385;-88
2023/05/24 01:40:39;;;;;;;14.07;6.15;;;;;;;17.63;94.02;100010.08;1436974;90;21467;-88
2023/05/24 01:43:14;;;;;;;6.77;5.67;;;;;;;17.64;94.42;100006.40;1431153;90;22508;-89
2023/05/24 01:46:03;;;;;;;6.77;5.37;;;;;;;17.65;94.85;100009.38;1434110;90;22552;-89
2023/05/24 01:49:15;;;;;;;9.83;6.13;;;;;;;17.63;95.36;100010.08;1445944;90;21525;-84
2023/05/24 01:51:52;;;;;;;7.87;5.90;;;;;;;17.62;95.90;100007.63;1438111;90;21392;-86
2023/05/24 01:54:25;;;;;;;6.43;5.60;;;;;;;17.58;95.20;100006.70;1441317;90;21385;-86
2023/05/24 01:56:55;;;;;;;9.83;6.40;;;;;;;17.52;95.95;100000.83;1435073;90;21370;-85
2023/05/24 01:59:26;;;;;;;11.68;6.70;;;;;;;17.44;97.08;99992.16;1438406;90;21283;-82
2023/05/24 02:01:52;;;;;;;10.77;6.00;;;;;;;17.38;96.79;99988.45;1467865;89;21380;-81
2023/05/24 02:04:18;;;;;;;10.00;6.50;;;;;;;17.33;97.65;99990.90;1443142;90;21341;-88
2023/05/24 02:06:44;;;;;;;6.67;5.80;;;;;;;17.29;98.17;99992.31;1443873;90;21540;-87
2023/05/24 02:09:11;;;;;;;9.67;5.47;;;;;;;17.28;97.86;99990.67;1425815;90;21526;-88
2023/05/24 02:11:37;;;;;;;7.07;5.43;;;;;;;17.27;98.62;99990.38;1426863;90;21514;-89
2023/05/24 02:14:03;;;;;;;16.07;6.20;;;;;;;17.26;98.36;99996.73;1438543;90;21701;-88
2023/05/24 02:16:29;;;;;;;8.30;5.70;;;;;;;17.24;98.65;99988.92;1442015;90;21508;-84
2023/05/24 02:18:57;;;;;;;7.90;5.73;;;;;;;17.23;98.44;99987.78;1433230;90;21482;-87
2023/05/24 02:21:24;;;;;;;6.73;5.90;;;;;;;17.20;98.51;99990.34;1438190;90;22423;-85
2023/05/24 02:23:50;;;;;;;7.73;5.73;;;;;;;17.17;99.02;99985.39;1437086;90;21467;-87
2023/05/24 02:26:17;;;;;;;8.07;5.63;;;;;;;17.13;99.34;99988.98;1437378;90;21564;-88
2023/05/24 02:28:44;;;;;;;7.40;5.53;;;;;;;17.10;99.48;99992.06;1442633;90;21489;-88
2023/05/24 02:31:10;;;;;;;7.90;5.83;;;;;;;17.11;99.48;99994.22;1439423;90;21356;-88
2023/05/24 02:33:37;;;;;;;12.33;6.03;;;;;;;17.11;99.51;99990.21;1438629;90;22391;-88
2023/05/24 02:36:03;;;;;;;11.07;5.83;;;;;;;17.11;99.51;99990.21;1441826;90;21400;-87
2023/05/24 02:38:30;;;;;;;5.43;4.93;;;;;;;17.12;99.23;99996.71;1440465;90;21789;-86
2023/05/24 02:40:56;;;;;;;7.07;5.40;;;;;;;17.12;99.32;99987.35;1439356;90;21355;-86
2023/05/24 02:43:23;;;;;;;7.17;5.70;;;;;;;17.13;99.19;99988.17;1436198;90;21551;-88
2023/05/24 02:45:49;;;;;;;6.43;5.57;;;;;;;17.11;99.70;99985.69;1442047;90;22169;-87
2023/05/24 02:48:16;;;;;;;7.87;5.50;;;;;;;17.12;99.30;99986.02;1444386;90;21576;-87
2023/05/24 02:50:43;;;;;;;9.30;7.03;;;;;;;17.13;98.97;99992.18;1443573;90;21525;-87
2023/05/24 02:53:09;;;;;;;7.37;6.47;;;;;;;17.13;98.71;99987.66;1439113;90;21430;-86
2023/05/24 02:55:36;;;;;;;8.23;5.97;;;;;;;17.12;98.72;99990.02;1426906;90;21437;-88
2023/05/24 02:58:02;;;;;;;11.80;6.70;;;;;;;17.08;98.87;99986.60;1436716;90;22221;-89
2023/05/24 03:00:28;;;;;;;8.30;5.57;;;;;;;17.07;99.21;99987.13;1433239;90;21504;-87
2023/05/24 03:02:56;;;;;;;12.20;5.30;;;;;;;17.06;99.29;99981.47;1440930;90;21831;-86
2023/05/24 03:05:24;;;;;;;10.17;5.50;;;;;;;17.08;99.47;99987.94;1445643;90;22460;-86
2023/05/24 03:07:50;;;;;;;8.27;5.63;;;;;;;17.08;99.46;99983.41;1431260;90;21399;-87
2023/05/24 03:10:17;;;;;;;8.63;5.87;;;;;;;17.10;99.21;99985.37;1443407;90;21348;-85
2023/05/24 03:12:43;;;;;;;9.13;5.97;;;;;;;17.12;99.61;99987.35;1441443;90;21408;-88
2023/05/24 03:15:10;;;;;;;10.80;6.20;;;;;;;17.10;99.64;99983.22;1439749;90;21462;-87
2023/05/24 03:17:36;;;;;;;10.17;6.00;;;;;;;17.07;99.70;99992.47;1440188;90;21326;-87
2023/05/24 03:20:04;;;;;;;12.80;6.27;;;;;;;17.02;99.29;99985.55;1443345;90;21392;-85
2023/05/24 03:22:30;;;;;;;8.57;5.87;;;;;;;17.00;99.76;99989.45;1436341;90;21333;-87
2023/05/24 03:24:57;;;;;;;7.33;6.17;;;;;;;16.98;100.00;99996.34;1447783;90;22367;-83
2023/05/24 03:27:23;;;;;;;5.73;4.53;;;;;;;16.97;100.00;99997.35;1442361;90;21378;-88
2023/05/24 03:29:49;;;;;;;8.87;5.57;;;;;;;16.97;100.00;99993.86;1436766;90;21504;-88
2023/05/24 03:32:15;;;;;;;8.80;5.00;;;;;;;17.00;100.00;99992.94;1445114;90;21371;-88
2023/05/24 03:34:41;;;;;;;10.57;5.30;;;;;;;17.03;100.00;99996.58;1436908;90;21578;-82
2023/05/24 03:37:07;;;;;;;11.50;7.07;;;;;;;17.05;100.00;99991.84;1435263;90;21356;-87
2023/05/24 03:39:34;;;;;;;9.77;5.80;;;;;;;17.09;99.80;99999.78;1448433;90;21525;-87
2023/05/24 03:42:00;;;;;;;6.50;5.77;;;;;;;17.13;99.52;100002.87;1437564;90;21355;-86
2023/05/24 03:44:26;;;;;;;11.13;5.87;;;;;;;17.17;99.23;100007.30;1436422;90;21653;-85
2023/05/24 03:46:52;;;;;;;9.00;5.70;;;;;;;17.17;99.29;100000.09;1444707;90;22338;-87
2023/05/24 03:49:18;;;;;;;10.53;5.00;;;;;;;17.19;99.31;100009.27;1435707;90;22472;-88
2023/05/24 03:51:44;;;;;;;10.13;5.70;;;;;;;17.22;99.17;100011.02;1443391;90;21326;-87
2023/05/24 03:54:11;;;;;;;9.30;4.70;;;;;;;17.24;99.12;100003.63;1438402;90;21518;-87
2023/05/24 03:56:37;;;;;;;9.30;6.23;;;;;;;17.26;99.08;100006.09;1441983;90;22316;-88
2023/05/24 03:59:03;;;;;;;6.93;5.37;;;;;;;17.25;99.25;100004.45;1436651;90;21356;-87
2023/05/24 04:01:32;;;;;;;10.73;6.17;;;;;;;17.24;99.06;100006.31;1436501;90;21459;-87
2023/05/24 04:04:00;;;;;;;18.70;8.40;;;;;;;17.25;99.00;100004.45;1435351;90;21408;-87
2023/05/24 04:06:27;;;;;;;11.17;7.17;;;;;;;17.25;99.42;100004.45;1440065;90;22502;-86
2023/05/24 04:08:56;;;;;;;10.40;7.67;;;;;;;17.27;99.30;100005.08;1440825;90;21421;-88
2023/05/24 04:11:26;;;;;;;9.50;7.00;;;;;;;17.26;99.54;100016.78;1437629;90;21429;-87
2023/05/24 04:13:51;;;;;;;12.40;6.90;;;;;;;17.24;99.54;100026.37;1445529;90;22339;-86
2023/05/24 04:16:17;;;;;;;8.10;6.23;;;;;;;17.26;99.64;100032.34;1434436;90;21467;-89
2023/05/24 04:18:44;;;;;;;9.00;5.90;;;;;;;17.29;99.70;100035.95;1426569;90;21555;-89
2023/05/24 04:21:11;;;;;;;9.07;6.90;;;;;;;17.34;99.67;100040.16;1441737;90;21400;-87
2023/05/24 04:23:37;;;;;;;8.77;6.37;;;;;;;17.35;99.20;100039.16;1441299;90;21370;-89
2023/05/24 04:26:03;;;;;;;7.87;5.97;;;;;;;17.36;99.12;100035.97;1444570;90;22361;-89
2023/05/24 04:28:30;;;;;;;7.37;6.23;;;;;;;17.36;98.97;100037.30;1439556;90;22589;-88
2023/05/24 04:30:57;;;;;;;8.57;6.70;;;;;;;17.36;99.11;100035.97;1442260;90;21393;-88
2023/05/24 04:33:23;;;;;;;10.10;6.30;;;;;;;17.38;99.27;100043.28;1446221;90;21619;-89
2023/05/24 04:35:51;;;;;;;8.20;6.90;;;;;;;17.41;99.34;100044.22;1438297;90;21341;-88
2023/05/24 04:38:18;;;;;;;9.93;6.57;;;;;;;17.42;99.38;100048.53;1445421;90;21692;-86
2023/05/24 04:40:44;;;;;;;10.43;7.07;;;;;;;17.46;99.39;100051.09;1438712;90;21334;-89
2023/05/24 04:43:11;;;;;;;12.57;7.20;;;;;;;17.47;99.46;100062.66;1432922;90;22287;-89
2023/05/24 04:45:37;;;;;;;8.33;6.37;;;;;;;17.45;99.35;100064.17;1443608;90;21548;-88
2023/05/24 04:48:03;;;;;;;9.60;5.90;;;;;;;17.49;99.10;100060.09;1438781;90;21377;-88
2023/05/24 04:50:30;;;;;;;7.43;6.27;;;;;;;17.53;98.91;100052.48;1440314;90;21401;-88
2023/05/24 04:52:56;;;;;;;8.80;6.20;;;;;;;17.58;98.76;100058.88;1451369;90;22294;-90
2023/05/24 04:55:22;;;;;;;8.53;5.90;;;;;;;17.63;98.70;100062.78;1439085;90;21540;-89
2023/05/24 04:57:48;;;;;;;10.20;7.17;;;;;;;17.70;98.56;100066.31;1442618;90;21377;-89
2023/05/24 05:00:15;;;;;;;12.93;6.87;;;;;;;17.72;98.32;100058.88;1445320;90;22405;-88
2023/05/24 05:02:42;;;;;;;11.37;6.37;;;;;;;17.76;98.00;100062.30;1444301;90;22398;-88
2023/05/24 05:05:08;;;;;;;10.40;7.50;;;;;;;17.76;97.71;100062.82;1443515;90;21385;-89
2023/05/24 05:07:35;;;;;;;12.20;6.90;;;;;;;17.80;97.51;100066.75;1439541;90;21341;-88
2023/05/24 05:10:01;;;;;;;8.70;6.70;;;;;;;17.82;97.43;100062.03;1444620;90;21548;-88
2023/05/24 05:12:29;;;;;;;10.13;7.13;;;;;;;17.85;97.42;100060.28;1436686;90;21290;-88
2023/05/24 05:14:55;;;;;;;12.20;7.50;;;;;;;17.87;97.37;100062.77;1434696;90;21377;-87
2023/05/24 05:17:21;;;;;;;7.53;6.83;;;;;;;17.91;97.18;100066.67;1432605;90;21414;-81
2023/05/24 05:19:47;;;;;;;13.17;8.13;;;;;;;17.92;97.05;100069.13;1448988;89;21507;-89
2023/05/24 05:22:13;;;;;;;10.00;7.07;;;;;;;17.92;96.87;100065.12;1432910;90;21326;-89
2023/05/24 05:24:40;;;;;;;10.60;7.13;;;;;;;17.90;96.64;100067.72;1438071;90;22428;-87
2023/05/24 05:27:06;;;;;;;8.27;7.37;;;;;;;17.88;97.02;100065.23;1444121;90;21356;-89
2023/05/24 05:29:32;;;;;;;11.30;7.63;;;;;;;17.86;97.05;100068.61;1437651;90;21503;-89
2023/05/24 05:31:58;;;;;;;14.13;7.33;;;;;;;17.88;97.19;100065.23;1441565;90;22301;-83
2023/05/24 05:34:24;;;;;;;8.60;7.63;;;;;;;17.86;97.14;100068.61;1441987;90;21304;-89
2023/05/24 05:36:53;;;;;;;9.97;7.60;;;;;;;17.86;97.47;100064.59;1442688;90;21525;-86
2023/05/24 05:39:18;;;;;;;12.50;8.07;;;;;;;17.87;97.39;100065.45;1435670;89;21349;-91
2023/05/24 05:41:44;;;;;;;15.73;7.87;;;;;;;17.92;97.26;100069.66;1415884;90;21450;-89
2023/05/24 05:44:11;;;;;;;8.93;7.50;;;;;;;17.93;96.80;100069.98;1440289;90;21459;-85
2023/05/24 05:46:38;;;;;;;10.87;7.73;;;;;;;17.94;96.44;100071.63;1444253;90;21589;-88
2023/05/24 05:49:06;;;;;;;13.53;8.03;;;;;;;17.93;96.37;100067.30;1442540;90;21496;-88
2023/05/24 05:51:32;;;;;;;11.83;7.87;;;;;;;17.94;96.57;100064.41;1439955;90;21571;-87
2023/05/24 05:53:58;;;;;;;7.97;6.90;;;;;;;17.98;96.74;100072.84;1439109;90;21363;-88
2023/05/24 05:56:24;;;;;;;7.97;6.67;;;;;;;18.01;96.61;100077.30;1441575;90;21370;-86
2023/05/24 05:58:50;;;;;;;10.77;7.30;;;;;;;18.08;96.57;100085.85;1444963;90;22273;-87
2023/05/24 06:01:16;;;;;;;9.90;6.77;;;;;;;18.11;96.30;100085.44;1442694;90;21556;-88
2023/05/24 06:03:42;;;;;;;16.43;7.10;;;;;;;18.14;95.76;100087.70;1439629;90;21444;-87
2023/05/24 06:06:08;;;;;;;15.00;7.63;;;;;;;18.17;95.39;100081.94;1440020;90;22206;-88
2023/05/24 06:08:35;;;;;;;10.00;7.73;;;;;;;18.21;95.18;100080.48;1441528;90;21573;-86
2023/05/24 06:11:01;;;;;;;9.93;7.13;;;;;;;18.28;95.26;100086.68;1442106;90;21348;-86
2023/05/24 06:13:30;;;;;;;8.30;6.77;;;;;;;18.33;95.15;100086.89;1442348;90;21459;-87
2023/05/24 06:15:57;;;;;;;8.63;7.23;;;;;;;18.40;95.08;100089.56;1438259;90;21326;-88
2023/05/24 06:18:25;;;;;;;13.23;7.83;;;;;;;18.47;94.82;100099.25;1446164;90;21518;-85
2023/05/24 06:20:52;;;;;;;7.70;6.92;;;;;;;18.56;94.58;100097.67;1439058;90;21378;-85
2023/05/24 06:23:18;;;;;;;12.13;7.97;;;;;;;18.64;94.12;100102.33;1437845;90;22005;-85
2023/05/24 06:25:44;;;;;;;8.23;7.10;;;;;;;18.71;93.66;100103.66;1438305;90;22949;-86
2023/05/24 06:28:10;;;;;;;8.13;7.03;;;;;;;18.75;93.30;100104.91;1440930;90;21348;-85
2023/05/24 06:30:36;;;;;;;11.80;8.25;;;;;;;18.81;92.47;100113.45;1442057;90;21363;-85
2023/05/24 06:33:02;;;;;;;13.80;8.48;;;;;;;18.84;91.96;100113.02;1436787;90;21297;-87
2023/05/24 06:35:29;;;;;;;10.48;7.65;;;;;;;18.90;92.18;100113.55;1439127;90;21480;-85
2023/05/24 06:37:56;;;;;;;11.10;7.20;;;;;;;18.95;91.91;100115.59;1440580;90;21349;-86
2023/05/24 06:40:23;;;;;;;10.78;7.65;;;;;;;19.02;91.60;100113.73;1442399;90;21385;-85
2023/05/24 06:42:49;;;;;;;12.15;8.28;;;;;;;19.07;90.96;100111.22;1426105;90;21460;-86
2023/05/24 06:45:15;;;;;;;10.75;8.80;;;;;;;19.10;90.64;100117.53;1439977;90;21415;-85
2023/05/24 06:47:41;;;;;;;9.63;8.25;;;;;;;19.09;89.89;100121.75;1442776;90;21547;-86
2023/05/24 06:50:11;;;;;;;8.93;7.53;;;;;;;19.09;89.64;100121.75;1441988;90;21437;-86
2023/05/24 06:52:36;;;;;;;8.20;7.33;;;;;;;19.09;89.58;100128.45;1364798;90;21290;-85
2023/05/24 06:55:03;;;;;;;9.65;7.47;;;;;;;19.12;89.59;100141.44;1368115;90;21393;-85
2023/05/24 06:57:30;;;;;;;13.10;6.95;;;;;;;19.12;89.70;100136.89;1406605;90;21399;-86
2023/05/24 06:59:56;;;;;;;8.75;7.17;;;;;;;19.19;89.74;100143.61;1438899;90;21355;-86
2023/05/24 07:02:26;;;;;;;7.70;6.85;;;;;;;19.23;89.34;100144.81;1439326;90;21445;-87
2023/05/24 07:04:51;;;;;;;13.22;7.25;;;;;;;19.25;88.87;100149.47;1427939;90;21459;-86
2023/05/24 07:07:17;;;;;;;10.68;7.78;;;;;;;19.25;88.69;100150.81;1441910;90;21679;-86
2023/05/24 07:13:43;;;;;;;15.85;8.85;;;;;;;19.23;87.97;100152.87;1442639;90;21378;-86
2023/05/24 07:16:11;;;;;;;11.05;6.67;;;;;;;19.10;87.72;100159.11;1441180;90;21437;-88
2023/05/24 07:18:40;;;;;;;7.87;6.70;;;;;;;19.08;88.01;100154.45;1441735;90;21584;-85
2023/05/24 07:21:06;;;;;;;9.78;7.87;;;;;;;19.09;88.14;100157.44;1424207;90;22463;-87
2023/05/24 07:23:34;;;;;;;11.08;7.47;;;;;;;19.09;87.93;100156.09;1439426;90;21452;-84
2023/05/24 07:26:00;;;;;;;14.13;7.53;;;;;;;19.03;87.82;100154.78;1440733;90;22497;-84
2023/05/24 07:28:26;;;;;;;14.83;7.00;;;;;;;18.97;87.98;100159.64;1437754;90;21458;-87
2023/05/24 07:30:52;;;;;;;9.03;7.50;;;;;;;18.84;88.09;100159.13;1440740;90;21518;-87
2023/05/24 07:33:20;;;;;;;12.73;7.67;;;;;;;18.82;88.36;100162.03;1439891;90;21399;-86
2023/05/24 07:35:50;;;;;;;10.85;7.28;;;;;;;18.81;88.41;100167.59;1436711;90;21319;-86
2023/05/24 07:38:26;;;;;;;13.00;7.20;;;;;;;18.77;88.37;100172.55;1439001;90;21515;-84
2023/05/24 07:40:49;;;;;;;8.40;7.60;;;;;;;18.74;88.77;100178.33;1430294;90;21570;-85
2023/05/24 07:43:16;;;;;;;8.58;6.97;;;;;;;18.71;88.57;100176.03;1425730;90;21466;-85
2023/05/24 07:45:47;;;;;;;14.10;7.60;;;;;;;18.69;88.67;100183.44;1440262;90;21341;-85
2023/05/24 07:48:17;;;;;;;17.90;7.58;;;;;;;18.69;88.82;100186.13;1441716;90;22332;-85
2023/05/24 07:50:47;;;;;;;13.60;7.87;;;;;;;18.64;89.31;100182.74;1435578;90;21502;-83
2023/05/24 07:53:11;;;;;;;14.10;7.17;;;;;;;18.61;90.05;100187.14;1438220;90;22478;-85
2023/05/24 07:55:37;;;;;;;15.95;7.33;;;;;;;18.62;90.03;100188.00;1441363;90;21363;-85
2023/05/24 07:58:03;;;;;;;17.27;8.15;;;;;;;18.64;90.23;100191.27;1439771;90;21377;-86
2023/05/24 08:00:30;;;;;;;9.95;6.60;;;;;;;18.65;90.37;100191.60;1439725;90;22311;-86
2023/05/24 08:02:56;;;;;;;9.43;7.75;;;;;;;18.65;90.77;100194.28;1438927;90;21348;-85
2023/05/24 08:05:22;;;;;;;10.93;7.58;;;;;;;18.62;90.45;100197.38;1440538;90;21467;-87
2023/05/24 08:07:49;;;;;;;16.02;7.95;;;;;;;18.63;90.34;100199.02;1441252;90;21437;-89
2023/05/24 08:10:15;;;;;;;16.97;9.83;;;;;;;18.66;91.00;100196.73;1439300;90;21399;-84
2023/05/24 08:12:42;;;;;;;14.05;8.78;;;;;;;18.71;91.50;100202.84;1443713;90;22346;-87
2023/05/24 08:15:09;;;;;;;13.32;8.70;;;;;;;18.71;91.46;100205.00;1437443;90;21517;-88
2023/05/24 08:17:35;;;;;;;14.07;7.87;;;;;;;18.71;92.05;100200.16;1442672;90;21377;-87
2023/05/24 08:20:13;;;;;;;11.18;8.45;;;;;;;18.75;92.04;100208.11;1439347;90;21493;-87
2023/05/24 08:22:36;;;;;;;13.85;8.55;;;;;;;18.74;92.28;100213.17;1439589;89;21400;-87
2023/05/24 08:25:03;;;;;;;15.70;9.10;;;;;;;18.78;92.10;100202.86;1439609;90;21348;-88
2023/05/24 08:27:29;;;;;;;13.62;8.95;;;;;;;18.80;92.19;100213.69;1439173;90;21422;-88
2023/05/24 08:29:55;;;;;;;12.58;9.68;;;;;;;18.86;92.10;100216.87;1439320;90;21451;-87
2023/05/24 08:32:22;;;;;;;10.93;9.85;;;;;;;18.81;92.12;100212.64;1438721;90;21518;-89
2023/05/24 08:34:51;;;;;;;13.43;9.35;;;;;;;18.84;92.48;100218.11;1441817;90;21385;-85
2023/05/24 08:37:21;;;;;;;11.48;9.10;;;;;;;18.92;93.21;100225.43;1437829;90;21393;-90
2023/05/24 08:39:48;;;;;;;10.60;9.40;;;;;;;19.00;93.07;100225.75;1440128;90;21511;-90
2023/05/24 08:42:15;;;;;;;12.33;9.98;;;;;;;19.09;92.87;100226.36;1440002;90;21341;-82
2023/05/24 08:44:48;;;;;;;15.75;10.93;;;;;;;19.18;92.82;100223.75;1440391;90;21408;-89
2023/05/24 08:47:16;;;;;;;13.50;10.28;;;;;;;19.27;92.49;100226.52;1424743;90;21354;-89
2023/05/24 08:49:46;;;;;;;15.45;10.82;;;;;;;19.32;91.99;100233.43;1363469;92;21608;-89
2023/05/24 08:52:13;;;;;;;16.40;9.93;;;;;;;19.45;92.13;100237.11;1346690;92;21414;-90
2023/05/24 08:54:40;;;;;;;12.80;11.08;;;;;;;19.53;91.89;100239.05;1353902;92;22059;-89
2023/05/24 08:57:14;;;;;;;12.73;10.18;;;;;;;19.60;91.49;100239.05;1370594;90;21230;-88
2023/05/24 08:59:35;;;;;;;12.53;11.25;;;;;;;19.69;91.19;100241.84;1487657;92;21354;-88
2023/05/24 09:02:04;;;;;;;18.50;11.63;;;;;;;19.83;91.06;100242.62;1371657;90;21312;-90
2023/05/24 09:04:35;;;;;;;19.65;12.75;;;;;;;19.98;90.83;100239.12;1346392;92;21332;-89
2023/05/24 09:07:17;;;;;;;13.40;9.75;;;;;;;20.15;90.83;100239.98;1525400;90;21319;-92
2023/05/24 09:09:49;;;;;;;13.43;10.50;;;;;;;20.20;89.05;100245.02;1398900;92;22231;-88
2023/05/24 09:12:23;;;;;;;12.93;11.63;;;;;;;20.35;89.23;100247.94;1503809;90;21586;-88
2023/05/24 09:14:50;;;;;;;12.90;11.05;;;;;;;20.53;88.89;100246.70;1442893;90;21459;-88
2023/05/24 09:17:17;;;;;;;17.48;10.40;;;;;;;20.65;87.93;100252.20;1418944;92;22314;-88
2023/05/24 09:19:45;;;;;;;17.85;11.30;;;;;;;20.74;87.34;100245.51;1439125;90;22924;-89
2023/05/24 09:22:13;;;;;;;15.08;11.22;;;;;;;20.73;85.96;100237.97;1419611;92;21587;-86
2023/05/24 09:24:45;;;;;;;9.78;8.50;;;;;;;20.73;85.96;100237.97;1445859;90;21442;-87
2023/05/24 09:27:20;;;;;;;13.18;9.40;;;;;;;21.01;85.67;100260.93;1455531;90;21437;-89
2023/05/24 09:29:47;;;;;;;13.90;8.73;;;;;;;21.18;84.54;100260.67;1417372;92;21537;-84
2023/05/24 09:32:15;;;;;;;8.60;7.50;;;;;;;21.31;83.86;100255.67;1444679;90;21592;-85
2023/05/24 09:34:53;;;;;;;13.32;8.85;;;;;;;21.43;82.05;100265.20;1438121;90;21480;-88
2023/05/24 09:37:17;;;;;;;8.68;7.83;;;;;;;21.48;81.63;100261.33;1430655;90;21605;-87
2023/05/24 09:39:50;;;;;;;9.50;8.43;;;;;;;21.52;80.99;100263.89;1441241;90;21428;-88
2023/05/24 09:42:23;;;;;;;9.35;8.03;;;;;;;21.65;81.38;100267.48;1367011;91;21310;-89
2023/05/24 09:45:03;;;;;;;9.30;7.25;;;;;;;21.74;80.24;100271.52;1402453;92;21515;-89
2023/05/24 09:47:31;;;;;;;13.05;9.33;;;;;;;21.76;79.20;100264.05;1443393;90;21606;-82
2023/05/24 09:50:00;;;;;;;12.70;9.63;;;;;;;21.86;79.80;100267.83;1346723;92;21420;-84
2023/05/24 09:52:27;;;;;;;8.03;7.20;;;;;;;21.99;79.65;100266.86;1368916;90;22303;-83
2023/05/24 09:54:53;;;;;;;10.75;7.85;;;;;;;22.13;78.09;100266.17;1335485;93;21355;-84
2023/05/24 09:57:25;;;;;;;11.95;7.45;;;;;;;22.23;78.12;100265.65;1357181;90;21443;-82
2023/05/24 09:59:51;;;;;;;9.85;6.45;;;;;;;22.29;76.88;100267.43;1474067;92;21525;-83
2023/05/24 10:02:21;;;;;;;7.23;5.63;;;;;;;22.38;76.39;100270.09;1444692;90;21844;-84
2023/05/24 10:04:47;;;;;;;7.95;6.80;;;;;;;22.45;75.04;100265.98;1416293;92;21443;-85
2023/05/24 10:07:15;;;;;;;6.45;5.78;;;;;;;22.53;75.03;100269.16;1444099;90;21459;-84
2023/05/24 10:09:43;;;;;;;7.53;5.97;;;;;;;22.56;75.15;100267.04;1404095;92;21457;-84
2023/05/24 10:12:09;;;;;;;8.08;6.37;;;;;;;22.58;74.42;100266.29;1443666;90;22802;-85
2023/05/24 10:14:38;;;;;;;6.00;5.10;;;;;;;22.55;74.29;100265.41;1439731;90;21390;-84
2023/05/24 10:17:06;;;;;;;7.30;4.53;;;;;;;22.55;74.08;100272.15;1440343;90;21467;-82
2023/05/24 10:19:36;;;;;;;5.67;4.53;;;;;;;22.58;73.05;100273.85;1440200;90;21595;-82
2023/05/24 10:22:08;;;;;;;11.90;5.22;;;;;;;22.56;72.28;100271.09;1419531;92;21294;-81
2023/05/24 10:24:45;;;;;;;6.70;6.10;;;;;;;22.49;72.09;100268.50;1443923;90;22401;-82
2023/05/24 10:27:16;;;;;;;8.68;6.60;;;;;;;22.48;72.93;100271.72;1440301;90;22447;-82
2023/05/24 10:30:21;;;;;;;7.47;5.15;;;;;;;22.54;73.43;100265.94;1442573;90;21555;-82
2023/05/24 10:32:49;;;;;;;6.70;5.35;;;;;;;22.59;73.17;100269.30;1418176;92;22315;-82
2023/05/24 10:35:17;;;;;;;6.75;4.30;;;;;;;22.64;71.86;100268.91;1425360;90;21378;-82
2023/05/24 10:37:46;;;;;;;8.75;5.45;;;;;;;22.67;71.58;100258.16;1419330;92;21465;-81
2023/05/24 10:40:26;;;;;;;8.80;6.53;;;;;;;22.75;72.03;100259.99;1443368;90;21370;-82
2023/05/24 10:42:55;;;;;;;6.50;5.33;;;;;;;22.95;71.63;100261.59;1441084;90;21347;-81
2023/05/24 10:45:31;;;;;;;7.27;5.53;;;;;;;23.19;71.23;100262.44;1443028;90;21511;-81
2023/05/24 10:48:18;;;;;;;5.67;5.12;;;;;;;23.42;70.90;100264.31;1418885;92;21597;-81
2023/05/24 10:50:45;;;;;;;7.00;6.17;;;;;;;23.60;70.55;100262.81;1447082;90;21452;-82
2023/05/24 10:53:18;;;;;;;6.15;5.10;;;;;;;23.78;69.90;100263.20;1342802;93;21480;-82
2023/05/24 10:56:05;;;;;;;5.97;5.20;;;;;;;23.97;69.62;100265.77;1368236;90;21282;-81
2023/05/24 10:58:53;;;;;;;5.83;5.12;;;;;;;24.13;69.05;100261.46;1521243;90;21962;-83
2023/05/24 11:01:31;;;;;;;5.85;4.75;;;;;;;24.29;68.77;100263.41;1372217;90;21297;-81
2023/05/24 11:04:17;;;;;;;8.15;4.33;;;;;;;24.38;67.26;100266.53;1521392;90;21148;-82
2023/05/24 11:07:02;;;;;;;8.40;3.37;;;;;;;24.39;66.50;100274.39;1483570;90;22588;-81
2023/05/24 11:09:28;;;;;;;5.90;3.10;;;;;;;24.53;65.16;100269.53;1419657;92;21435;-82
2023/05/24 11:12:07;;;;;;;5.28;3.42;;;;;;;24.46;65.43;100266.18;1442582;90;21517;-82
2023/05/24 11:14:39;;;;;;;3.12;2.25;;;;;;;24.59;65.45;100268.56;1521240;90;21155;-82
2023/05/24 11:17:09;;;;;;;3.75;2.95;;;;;;;24.72;63.97;100266.09;1521406;90;22072;-82
2023/05/24 11:19:39;;;;;;;5.22;3.20;;;;;;;24.78;64.09;100269.70;1370348;90;21267;-82
2023/05/24 11:22:08;;;;;;;2.72;2.20;;;;;;;24.81;63.21;100261.09;1478680;92;21568;-81
2023/05/24 11:24:35;;;;;;;9.68;2.67;;;;;;;24.79;62.36;100267.27;1443788;90;21341;-83
2023/05/24 11:27:02;;;;;;;3.95;2.37;;;;;;;24.68;62.28;100264.92;1420786;92;22513;-82
2023/05/24 11:29:31;;;;;;;8.23;2.58;;;;;;;24.64;62.42;100263.24;1443585;90;21444;-84
2023/05/24 11:32:05;;;;;;;3.85;2.40;;;;;;;24.57;62.61;100264.45;1419267;92;21479;-82
2023/05/24 11:34:32;;;;;;;3.77;2.30;;;;;;;24.50;62.27;100263.27;1445602;90;21363;-83